createdAt,value
2022-08-08T00:00:52.315Z,14.01
2022-08-08T00:02:33.532Z,13.63
2022-08-08T00:05:44.283Z,13.70
2022-08-08T00:08:51.675Z,13.48
2022-08-08T00:11:46.634Z,13.58
2022-08-08T00:15:05.151Z,13.74
2022-08-08T00:18:03.171Z,13.58
2022-08-08T00:20:56.412Z,13.60
2022-08-08T00:23:51.423Z,13.16
2022-08-08T00:26:52.382Z,13.36
2022-08-08T00:29:48.124Z,13.26
2022-08-08T00:32:44.923Z,13.33
2022-08-08T00:35:49.244Z,13.27
2022-08-08T00:38:51.764Z,13.18
2022-08-08T00:42:42.107Z,13.18
2022-08-08T00:45:56.572Z,13.14
2022-08-08T00:49:23.172Z,13.12
2022-08-08T00:52:43.511Z,13.06
2022-08-08T00:55:59.149Z,12.93
2022-08-08T00:59:09.175Z,12.92
2022-08-08T01:04:02.767Z,12.97
2022-08-08T01:06:16.097Z,12.87
2022-08-08T01:09:41.138Z,12.82
2022-08-08T01:12:54.115Z,12.79
2022-08-08T01:15:54.117Z,12.70
2022-08-08T01:19:11.638Z,12.75
2022-08-08T01:22:13.109Z,12.70
2022-08-08T01:25:26.298Z,12.68
2022-08-08T01:29:05.666Z,12.61
2022-08-08T01:32:17.095Z,12.51
2022-08-08T01:35:40.452Z,12.25
2022-08-08T01:38:59.988Z,12.38
2022-08-08T01:41:59.896Z,12.37
2022-08-08T01:45:13.884Z,11.92
2022-08-08T01:48:30.666Z,12.33
2022-08-08T01:52:05.679Z,12.05
2022-08-08T01:55:19.647Z,12.28
2022-08-08T01:58:31.963Z,12.30
2022-08-08T02:01:59.800Z,12.15
2022-08-08T02:05:09.451Z,12.02
2022-08-08T02:08:16.631Z,12.05
2022-08-08T02:11:23.695Z,12.02
2022-08-08T02:14:25.243Z,11.99
2022-08-08T02:17:42.930Z,11.91
2022-08-08T02:21:01.311Z,11.88
2022-08-08T02:23:57.659Z,11.83
2022-08-08T02:27:00.772Z,11.87
2022-08-08T02:29:57.846Z,11.86
2022-08-08T02:32:53.724Z,11.84
2022-08-08T02:36:04.863Z,11.76
2022-08-08T02:39:41.289Z,11.75
2022-08-08T02:44:34.639Z,11.69
2022-08-08T02:46:31.346Z,11.79
2022-08-08T02:49:27.597Z,11.72
2022-08-08T02:53:10.510Z,11.52
2022-08-08T02:56:17.729Z,11.59
2022-08-08T02:59:57.746Z,11.58
2022-08-08T03:02:58.210Z,11.55
2022-08-08T03:06:24.285Z,11.58
2022-08-08T03:09:43.523Z,11.54
2022-08-08T03:15:53.443Z,11.54
2022-08-08T03:17:16.080Z,11.49
2022-08-08T03:20:11.350Z,11.44
2022-08-08T03:23:04.875Z,11.31
2022-08-08T03:25:52.711Z,11.20
2022-08-08T03:28:51.097Z,11.43
2022-08-08T03:32:06.238Z,11.19
2022-08-08T03:34:54.177Z,11.34
2022-08-08T03:37:59.593Z,11.25
2022-08-08T03:40:55.253Z,11.20
2022-08-08T03:43:59.556Z,11.38
2022-08-08T03:46:49.795Z,11.24
2022-08-08T03:49:57.497Z,11.20
2022-08-08T03:52:49.066Z,11.16
2022-08-08T03:55:58.005Z,11.05
2022-08-08T03:58:53.490Z,11.22
2022-08-08T04:02:12.699Z,11.07
2022-08-08T04:04:52.503Z,11.22
2022-08-08T04:07:40.766Z,11.04
2022-08-08T04:10:32.287Z,11.32
2022-08-08T04:13:20.991Z,10.94
2022-08-08T04:16:12.217Z,10.78
2022-08-08T04:19:02.867Z,11.11
2022-08-08T04:21:50.063Z,10.82
2022-08-08T04:24:36.716Z,11.00
2022-08-08T04:28:01.949Z,11.10
2022-08-08T04:30:44.215Z,11.02
2022-08-08T04:33:38.582Z,10.84
2022-08-08T04:36:29.246Z,10.84
2022-08-08T04:40:03.480Z,11.05
2022-08-08T04:42:25.957Z,11.00
2022-08-08T04:45:12.776Z,11.10
2022-08-08T04:48:00.892Z,11.22
2022-08-08T04:50:51.107Z,11.49
2022-08-08T04:54:26.783Z,11.38
2022-08-08T04:56:49.035Z,11.56
2022-08-08T04:59:42.024Z,11.54
2022-08-08T05:02:31.133Z,11.84
2022-08-08T05:05:20.505Z,12.23
2022-08-08T05:08:26.945Z,13.05
2022-08-08T05:11:24.314Z,14.56
2022-08-08T05:14:20.578Z,16.05
2022-08-08T05:17:11.656Z,17.48
2022-08-08T05:20:09.355Z,18.84
2022-08-08T05:23:02.129Z,19.74
2022-08-08T05:25:51.842Z,20.57
2022-08-08T05:28:56.357Z,20.90
2022-08-08T05:32:03.392Z,21.29
2022-08-08T05:34:53.329Z,21.40
2022-08-08T05:37:54.676Z,21.11
2022-08-08T05:41:07.673Z,20.62
2022-08-08T05:44:21.754Z,20.01
2022-08-08T05:47:21.146Z,19.28
2022-08-08T05:50:09.770Z,18.65
2022-08-08T05:52:57.765Z,17.75
2022-08-08T05:56:14.547Z,17.51
2022-08-08T05:59:12.402Z,17.21
2022-08-08T06:02:00.725Z,16.68
2022-08-08T06:04:56.310Z,16.64
2022-08-08T06:07:47.806Z,16.76
2022-08-08T06:10:39.228Z,16.43
2022-08-08T06:13:36.408Z,16.63
2022-08-08T06:16:37.397Z,16.79
2022-08-08T06:19:48.206Z,16.80
2022-08-08T06:22:35.346Z,16.74
2022-08-08T06:26:34.722Z,16.89
2022-08-08T06:28:34.079Z,17.08
2022-08-08T06:31:22.576Z,17.08
2022-08-08T06:34:36.776Z,16.98
2022-08-08T06:37:28.548Z,17.59
2022-08-08T06:40:29.039Z,17.68
2022-08-08T06:43:19.760Z,17.78
2022-08-08T06:46:23.863Z,17.82
2022-08-08T06:49:13.238Z,18.07
2022-08-08T06:52:01.303Z,18.06
2022-08-08T06:54:49.914Z,18.20
2022-08-08T06:57:54.850Z,18.53
2022-08-08T07:00:49.110Z,18.83
2022-08-08T07:04:39.041Z,18.76
2022-08-08T07:07:11.278Z,19.03
2022-08-08T07:10:09.744Z,19.14
2022-08-08T07:13:07.171Z,19.51
2022-08-08T07:16:34.624Z,19.77
2022-08-08T07:20:00.464Z,20.17
2022-08-08T07:22:53.831Z,20.35
2022-08-08T07:25:44.203Z,20.39
2022-08-08T07:28:43.726Z,20.54
2022-08-08T07:31:35.474Z,20.39
2022-08-08T07:34:31.567Z,20.36
2022-08-08T07:37:23.372Z,20.48
2022-08-08T07:40:11.159Z,20.66
2022-08-08T07:43:11.989Z,20.71
2022-08-08T07:46:23.116Z,20.95
2022-08-08T07:49:13.703Z,20.91
2022-08-08T07:52:03.222Z,21.23
2022-08-08T07:55:05.487Z,21.07
2022-08-08T07:58:06.022Z,21.57
2022-08-08T08:01:00.010Z,21.59
2022-08-08T08:03:50.631Z,21.84
2022-08-08T08:06:41.691Z,21.69
2022-08-08T08:09:39.996Z,21.87
2022-08-08T08:12:35.137Z,22.03
2022-08-08T08:15:31.892Z,22.04
2022-08-08T08:18:27.407Z,22.25
2022-08-08T08:21:21.169Z,22.38
2022-08-08T08:24:32.065Z,22.31
2022-08-08T08:27:22.058Z,22.03
2022-08-08T08:30:13.115Z,22.18
2022-08-08T08:32:59.828Z,22.47
2022-08-08T08:36:19.151Z,22.39
2022-08-08T08:38:57.623Z,22.60
2022-08-08T08:41:53.393Z,22.81
2022-08-08T08:44:40.936Z,22.95
2022-08-08T08:47:33.758Z,23.08
2022-08-08T08:50:34.486Z,23.13
2022-08-08T08:53:27.414Z,23.26
2022-08-08T08:56:38.248Z,23.42
2022-08-08T09:00:01.729Z,23.51
2022-08-08T09:02:50.226Z,23.43
2022-08-08T09:05:53.871Z,23.58
2022-08-08T09:08:49.789Z,23.76
2022-08-08T09:11:47.466Z,23.83
2022-08-08T09:14:55.841Z,24.20
2022-08-08T09:17:55.347Z,24.18
2022-08-08T09:21:57.182Z,24.38
2022-08-08T09:23:56.514Z,24.68
2022-08-08T09:27:02.493Z,24.74
2022-08-08T09:30:11.363Z,24.77
2022-08-08T09:33:54.573Z,24.67
2022-08-08T09:36:22.610Z,24.71
2022-08-08T09:39:15.424Z,25.01
2022-08-08T09:42:20.824Z,24.90
2022-08-08T09:45:15.582Z,25.08
2022-08-08T09:48:18.589Z,25.13
2022-08-08T09:51:08.914Z,25.07
2022-08-08T09:54:09.317Z,25.12
2022-08-08T09:57:04.282Z,25.23
2022-08-08T10:00:30.966Z,25.44
2022-08-08T10:03:03.140Z,25.59
2022-08-08T10:05:50.516Z,25.56
2022-08-08T10:08:44.613Z,25.56
2022-08-08T10:12:26.350Z,25.50
2022-08-08T10:14:40.961Z,25.48
2022-08-08T10:17:56.000Z,25.69
2022-08-08T10:20:58.026Z,25.79
2022-08-08T10:23:58.829Z,25.92
2022-08-08T10:26:59.756Z,25.90
2022-08-08T10:29:59.921Z,26.08
2022-08-08T10:33:00.281Z,26.24
2022-08-08T10:36:08.341Z,26.09
2022-08-08T10:39:07.039Z,26.38
2022-08-08T10:42:14.885Z,26.19
2022-08-08T10:45:09.032Z,26.27
2022-08-08T10:48:00.588Z,26.51
2022-08-08T10:50:47.165Z,26.22
2022-08-08T10:53:39.206Z,26.29
2022-08-08T10:56:43.186Z,26.19
2022-08-08T10:59:31.250Z,26.26
2022-08-08T11:02:32.496Z,26.32
2022-08-08T11:05:19.527Z,26.58
2022-08-08T11:08:38.061Z,26.75
2022-08-08T11:11:32.543Z,26.78
2022-08-08T11:14:32.016Z,26.85
2022-08-08T11:17:59.659Z,27.08
2022-08-08T11:20:30.731Z,27.19
2022-08-08T11:23:21.077Z,27.30
2022-08-08T11:26:07.594Z,27.21
2022-08-08T11:28:56.813Z,27.06
2022-08-08T11:31:48.649Z,27.28
2022-08-08T11:34:58.534Z,27.33
2022-08-08T11:38:36.542Z,27.21
2022-08-08T11:40:53.066Z,27.00
2022-08-08T11:43:42.644Z,26.84
2022-08-08T11:46:31.748Z,27.05
2022-08-08T11:49:20.303Z,27.13
2022-08-08T11:52:18.471Z,27.12
2022-08-08T11:55:26.662Z,27.09
2022-08-08T11:58:15.855Z,27.19
2022-08-08T12:01:12.056Z,27.57
2022-08-08T12:03:59.727Z,27.61
2022-08-08T12:06:46.415Z,27.55
2022-08-08T12:09:56.619Z,27.27
2022-08-08T12:12:46.026Z,27.49
2022-08-08T12:15:42.571Z,27.59
2022-08-08T12:18:44.420Z,27.61
2022-08-08T12:22:00.397Z,27.54
2022-08-08T12:24:51.489Z,27.40
2022-08-08T12:27:45.297Z,27.58
2022-08-08T12:30:35.862Z,27.87
2022-08-08T12:33:37.236Z,27.95
2022-08-08T12:36:46.224Z,28.40
2022-08-08T12:39:56.290Z,28.62
2022-08-08T12:42:47.893Z,28.83
2022-08-08T12:45:58.515Z,28.79
2022-08-08T12:49:44.010Z,28.84
2022-08-08T12:52:05.402Z,28.71
2022-08-08T12:55:14.337Z,28.59
2022-08-08T12:58:19.668Z,28.30
2022-08-08T13:01:11.060Z,28.10
2022-08-08T13:03:57.866Z,28.06
2022-08-08T13:07:04.089Z,28.49
2022-08-08T13:10:04.495Z,28.73
2022-08-08T13:13:01.724Z,28.87
2022-08-08T13:15:54.640Z,28.91
2022-08-08T13:18:55.628Z,29.24
2022-08-08T13:21:55.336Z,29.70
2022-08-08T13:24:48.966Z,29.85
2022-08-08T13:27:36.085Z,29.97
2022-08-08T13:30:26.584Z,30.38
2022-08-08T13:33:18.401Z,29.96
2022-08-08T13:36:10.523Z,29.68
2022-08-08T13:39:00.247Z,29.71
2022-08-08T13:41:52.758Z,29.53
2022-08-08T13:44:44.229Z,29.52
2022-08-08T13:47:33.327Z,29.16
2022-08-08T13:50:34.919Z,29.22
2022-08-08T13:53:34.058Z,29.49
2022-08-08T13:56:31.773Z,29.64
2022-08-08T13:59:32.627Z,29.44
2022-08-08T14:02:32.874Z,29.84
2022-08-08T14:05:28.317Z,29.81
2022-08-08T14:08:29.584Z,29.50
2022-08-08T14:11:25.735Z,29.66
2022-08-08T14:14:14.691Z,29.47
2022-08-08T14:17:08.101Z,29.60
2022-08-08T14:20:15.637Z,29.72
2022-08-08T14:23:21.336Z,29.67
2022-08-08T14:26:28.332Z,29.72
2022-08-08T14:29:26.954Z,29.49
2022-08-08T14:32:26.345Z,29.47
2022-08-08T14:35:19.834Z,29.21
2022-08-08T14:38:34.475Z,29.17
2022-08-08T14:41:45.554Z,29.10
2022-08-08T14:44:35.373Z,29.07
2022-08-08T14:47:22.134Z,29.12
2022-08-08T14:50:22.592Z,29.23
2022-08-08T14:53:23.661Z,28.93
2022-08-08T14:56:12.970Z,28.94
2022-08-08T14:59:00.638Z,28.87
2022-08-08T15:01:51.405Z,28.79
2022-08-08T15:04:38.279Z,28.91
2022-08-08T15:07:39.598Z,28.75
2022-08-08T15:10:28.873Z,28.51
2022-08-08T15:13:15.663Z,28.68
2022-08-08T15:16:03.855Z,28.59
2022-08-08T15:18:51.447Z,28.73
2022-08-08T15:21:42.874Z,28.57
2022-08-08T15:24:31.786Z,28.63
2022-08-08T15:27:58.242Z,28.57
2022-08-08T15:30:24.995Z,28.54
2022-08-08T15:33:20.764Z,28.48
2022-08-08T15:36:07.718Z,28.63
2022-08-08T15:38:55.027Z,28.63
2022-08-08T15:41:44.070Z,28.72
2022-08-08T15:44:32.778Z,28.51
2022-08-08T15:47:20.343Z,28.58
2022-08-08T15:50:16.824Z,28.47
2022-08-08T15:53:06.879Z,28.35
2022-08-08T15:55:54.699Z,28.54
2022-08-08T15:58:45.980Z,28.49
2022-08-08T16:01:40.414Z,28.32
2022-08-08T16:04:42.352Z,28.41
2022-08-08T16:07:51.037Z,28.39
2022-08-08T16:13:12.069Z,28.50
2022-08-08T16:13:45.072Z,28.80
2022-08-08T16:16:33.585Z,28.75
2022-08-08T16:19:24.111Z,28.56
2022-08-08T16:22:10.651Z,28.46
2022-08-08T16:25:16.938Z,28.40
2022-08-08T16:28:06.089Z,28.46
2022-08-08T16:31:09.754Z,28.29
2022-08-08T16:33:59.276Z,28.26
2022-08-08T16:36:49.273Z,28.16
2022-08-08T16:40:01.990Z,28.13
2022-08-08T16:42:43.067Z,28.28
2022-08-08T16:46:38.900Z,28.17
2022-08-08T16:48:37.082Z,28.29
2022-08-08T16:55:02.823Z,28.25
2022-08-08T16:55:04.395Z,28.26
2022-08-08T16:58:16.294Z,28.13
2022-08-08T17:00:48.706Z,28.00
2022-08-08T17:03:57.932Z,28.09
2022-08-08T17:06:43.710Z,28.11
2022-08-08T17:09:34.951Z,27.98
2022-08-08T17:12:31.893Z,27.79
2022-08-08T17:15:20.862Z,27.98
2022-08-08T17:18:13.407Z,28.03
2022-08-08T17:21:02.375Z,27.94
2022-08-08T17:23:59.992Z,27.82
2022-08-08T17:26:48.729Z,27.84
2022-08-08T17:29:36.301Z,27.70
2022-08-08T17:32:58.290Z,27.67
2022-08-08T17:35:54.758Z,27.74
2022-08-08T17:38:42.849Z,27.76
2022-08-08T17:41:39.237Z,27.44
2022-08-08T17:44:29.834Z,27.58
2022-08-08T17:47:27.397Z,27.36
2022-08-08T17:50:14.377Z,27.58
2022-08-08T17:53:00.705Z,27.52
2022-08-08T17:56:05.455Z,27.39
2022-08-08T17:58:53.421Z,27.30
2022-08-08T18:01:53.865Z,27.35
2022-08-08T18:04:42.565Z,26.98
2022-08-08T18:08:03.285Z,27.11
2022-08-08T18:10:43.892Z,26.79
2022-08-08T18:13:34.981Z,26.76
2022-08-08T18:16:31.139Z,26.78
2022-08-08T18:19:24.151Z,26.82
2022-08-08T18:22:50.356Z,26.63
2022-08-08T18:25:17.589Z,26.37
2022-08-08T18:28:05.519Z,26.35
2022-08-08T18:30:51.797Z,26.36
2022-08-08T18:34:18.626Z,25.97
2022-08-08T18:36:45.710Z,26.02
2022-08-08T18:39:34.643Z,25.82
2022-08-08T18:42:23.070Z,25.92
2022-08-08T18:45:44.738Z,25.71
2022-08-08T18:48:19.019Z,25.61
2022-08-08T18:51:21.706Z,25.49
2022-08-08T18:54:22.429Z,25.38
2022-08-08T18:57:11.237Z,25.29
2022-08-08T19:00:01.589Z,25.22
2022-08-08T19:02:55.869Z,25.13
2022-08-08T19:05:45.481Z,24.91
2022-08-08T19:08:33.778Z,24.82
2022-08-08T19:11:22.447Z,24.68
2022-08-08T19:14:09.810Z,24.65
2022-08-08T19:16:59.229Z,24.66
2022-08-08T19:20:02.340Z,24.55
2022-08-08T19:22:49.650Z,24.31
2022-08-08T19:26:26.844Z,24.43
2022-08-08T19:28:44.601Z,24.20
2022-08-08T19:31:35.064Z,24.03
2022-08-08T19:34:36.722Z,23.96
2022-08-08T19:37:43.344Z,23.96
2022-08-08T19:40:32.734Z,23.73
2022-08-08T19:43:19.122Z,23.54
2022-08-08T19:46:09.935Z,23.35
2022-08-08T19:49:03.858Z,23.08
2022-08-08T19:51:51.178Z,22.92
2022-08-08T19:54:39.439Z,22.70
2022-08-08T19:57:25.716Z,22.42
2022-08-08T20:00:30.097Z,22.25
2022-08-08T20:04:02.162Z,22.05
2022-08-08T20:06:24.355Z,21.84
2022-08-08T20:09:11.010Z,21.67
2022-08-08T20:12:08.536Z,21.58
2022-08-08T20:14:56.004Z,21.44
2022-08-08T20:17:46.885Z,21.33
2022-08-08T20:20:35.437Z,21.19
2022-08-08T20:23:21.911Z,20.97
2022-08-08T20:26:12.329Z,20.79
2022-08-08T20:28:59.386Z,20.77
2022-08-08T20:32:02.452Z,20.54
2022-08-08T20:35:01.364Z,20.36
2022-08-08T20:37:53.568Z,20.07
2022-08-08T20:40:41.754Z,20.16
2022-08-08T20:43:43.732Z,20.07
2022-08-08T20:46:35.047Z,20.02
2022-08-08T20:49:24.041Z,19.89
2022-08-08T20:52:29.461Z,19.84
2022-08-08T20:55:26.153Z,19.61
2022-08-08T20:58:13.676Z,19.70
2022-08-08T21:01:07.116Z,19.44
2022-08-08T21:04:05.619Z,19.55
2022-08-08T21:06:54.258Z,19.44
2022-08-08T21:09:48.647Z,19.36
2022-08-08T21:12:52.990Z,19.32
2022-08-08T21:16:05.452Z,19.08
2022-08-08T21:18:47.890Z,19.08
2022-08-08T21:21:39.689Z,19.03
2022-08-08T21:24:30.578Z,18.65
2022-08-08T21:27:38.839Z,18.56
2022-08-08T21:30:24.587Z,18.65
2022-08-08T21:33:11.700Z,18.62
2022-08-08T21:36:14.351Z,18.57
2022-08-08T21:39:04.867Z,18.49
2022-08-08T21:41:59.148Z,18.10
2022-08-08T21:44:58.736Z,18.27
2022-08-08T21:48:07.953Z,18.09
2022-08-08T21:50:53.830Z,18.02
2022-08-08T21:54:32.492Z,18.03
2022-08-08T21:56:46.851Z,17.99
2022-08-08T22:00:01.209Z,17.91
2022-08-08T22:02:45.013Z,17.84
2022-08-08T22:05:32.243Z,17.66
2022-08-08T22:08:25.416Z,17.44
2022-08-08T22:11:51.289Z,17.55
2022-08-08T22:14:18.239Z,17.33
2022-08-08T22:17:04.745Z,17.26
2022-08-08T22:20:13.006Z,17.18
2022-08-08T22:22:58.151Z,17.21
2022-08-08T22:26:26.813Z,17.04
2022-08-08T22:29:14.820Z,17.02
2022-08-08T22:32:03.803Z,16.99
2022-08-08T22:34:51.474Z,16.83
2022-08-08T22:37:53.535Z,16.83
2022-08-08T22:40:41.616Z,16.77
2022-08-08T22:43:28.018Z,16.84
2022-08-08T22:46:18.711Z,16.65
2022-08-08T22:49:05.941Z,16.61
2022-08-08T22:51:54.087Z,16.43
2022-08-08T22:54:55.869Z,16.37
2022-08-08T22:57:49.449Z,16.42
2022-08-08T23:00:37.263Z,16.42
2022-08-08T23:03:26.109Z,16.16
2022-08-08T23:06:32.298Z,16.34
2022-08-08T23:09:19.508Z,16.21
2022-08-08T23:12:27.427Z,16.13
2022-08-08T23:16:40.637Z,16.14
2022-08-08T23:18:30.054Z,15.80
2022-08-08T23:21:16.712Z,15.97
2022-08-08T23:24:03.671Z,15.99
2022-08-08T23:26:53.263Z,15.84
2022-08-08T23:29:42.838Z,15.73
2022-08-08T23:32:45.039Z,15.61
2022-08-08T23:35:34.213Z,15.93
2022-08-08T23:38:44.099Z,16.00
2022-08-08T23:41:31.242Z,15.91
2022-08-08T23:44:34.266Z,15.81
2022-08-08T23:49:01.956Z,15.80
2022-08-08T23:50:33.081Z,15.76
2022-08-08T23:54:06.111Z,15.61
2022-08-08T23:56:32.409Z,15.49
2022-08-08T23:59:20.670Z,15.44
